sensor_id;sensor_type;location;lat;lon;timestamp;P1;durP1;ratioP1;P2;durP2;ratioP2
74933;SDS011;63499;53.232;7.492;2023-05-10T02:36:22;8.10;;;6.30;;
74933;SDS011;63499;53.232;7.492;2023-05-10T02:38:51;7.30;;;6.00;;
74933;SDS011;63499;53.232;7.492;2023-05-10T02:41:22;10.82;;;7.22;;
74933;SDS011;63499;53.232;7.492;2023-05-10T02:43:50;8.57;;;7.00;;
74933;SDS011;63499;53.232;7.492;2023-05-10T02:46:17;6.95;;;6.20;;
74933;SDS011;63499;53.232;7.492;2023-05-10T02:48:44;8.35;;;6.80;;
74933;SDS011;63499;53.232;7.492;2023-05-10T02:51:11;8.80;;;7.90;;
74933;SDS011;63499;53.232;7.492;2023-05-10T02:53:40;8.77;;;7.82;;
74933;SDS011;63499;53.232;7.492;2023-05-10T02:56:20;8.85;;;7.53;;
74933;SDS011;63499;53.232;7.492;2023-05-10T02:58:50;8.57;;;7.65;;
74933;SDS011;63499;53.232;7.492;2023-05-10T03:01:16;8.75;;;7.78;;
74933;SDS011;63499;53.232;7.492;2023-05-10T03:03:43;7.72;;;6.93;;
74933;SDS011;63499;53.232;7.492;2023-05-10T03:06:10;7.95;;;6.95;;
74933;SDS011;63499;53.232;7.492;2023-05-10T03:08:37;10.20;;;8.95;;
74933;SDS011;63499;53.232;7.492;2023-05-10T03:13:56;9.52;;;8.43;;
74933;SDS011;63499;53.232;7.492;2023-05-10T03:16:33;10.82;;;8.70;;
74933;SDS011;63499;53.232;7.492;2023-05-10T03:19:22;9.80;;;8.27;;
74933;SDS011;63499;53.232;7.492;2023-05-10T03:21:52;10.77;;;9.15;;
74933;SDS011;63499;53.232;7.492;2023-05-10T03:24:20;13.27;;;8.65;;
74933;SDS011;63499;53.232;7.492;2023-05-10T03:26:48;10.93;;;8.57;;
74933;SDS011;63499;53.232;7.492;2023-05-10T03:29:17;9.48;;;8.15;;
74933;SDS011;63499;53.232;7.492;2023-05-10T03:31:45;11.07;;;8.55;;
74933;SDS011;63499;53.232;7.492;2023-05-10T03:34:13;13.38;;;9.30;;
74933;SDS011;63499;53.232;7.492;2023-05-10T03:36:40;11.55;;;9.20;;
74933;SDS011;63499;53.232;7.492;2023-05-10T03:39:08;12.50;;;8.52;;
74933;SDS011;63499;53.232;7.492;2023-05-10T03:41:36;13.43;;;9.20;;
74933;SDS011;63499;53.232;7.492;2023-05-10T03:44:03;11.50;;;9.90;;
74933;SDS011;63499;53.232;7.492;2023-05-10T03:46:29;13.50;;;10.20;;
74933;SDS011;63499;53.232;7.492;2023-05-10T03:48:56;13.13;;;9.52;;
74933;SDS011;63499;53.232;7.492;2023-05-10T03:51:23;12.02;;;9.57;;
74933;SDS011;63499;53.232;7.492;2023-05-10T03:53:54;10.40;;;8.25;;
74933;SDS011;63499;53.232;7.492;2023-05-10T03:56:21;10.77;;;9.15;;
74933;SDS011;63499;53.232;7.492;2023-05-10T03:58:48;11.68;;;9.73;;
74933;SDS011;63499;53.232;7.492;2023-05-10T04:01:15;13.18;;;9.50;;
74933;SDS011;63499;53.232;7.492;2023-05-10T04:03:41;10.45;;;8.15;;
74933;SDS011;63499;53.232;7.492;2023-05-10T04:06:09;10.73;;;8.73;;
74933;SDS011;63499;53.232;7.492;2023-05-10T04:08:37;11.15;;;9.38;;
74933;SDS011;63499;53.232;7.492;2023-05-10T04:11:08;11.75;;;8.90;;
74933;SDS011;63499;53.232;7.492;2023-05-10T04:13:35;12.20;;;9.15;;
74933;SDS011;63499;53.232;7.492;2023-05-10T04:16:02;13.32;;;9.20;;
74933;SDS011;63499;53.232;7.492;2023-05-10T04:18:29;10.65;;;8.57;;
74933;SDS011;63499;53.232;7.492;2023-05-10T04:20:56;9.48;;;8.00;;
74933;SDS011;63499;53.232;7.492;2023-05-10T04:23:22;9.40;;;7.57;;
74933;SDS011;63499;53.232;7.492;2023-05-10T04:25:49;9.93;;;7.88;;
74933;SDS011;63499;53.232;7.492;2023-05-10T04:28:16;9.48;;;8.32;;
74933;SDS011;63499;53.232;7.492;2023-05-10T04:30:43;10.25;;;8.07;;
74933;SDS011;63499;53.232;7.492;2023-05-10T04:33:12;9.75;;;8.00;;
74933;SDS011;63499;53.232;7.492;2023-05-10T04:35:39;10.55;;;8.68;;
74933;SDS011;63499;53.232;7.492;2023-05-10T04:38:06;10.77;;;9.07;;
74933;SDS011;63499;53.232;7.492;2023-05-10T04:40:33;11.43;;;8.55;;
74933;SDS011;63499;53.232;7.492;2023-05-10T04:43:00;11.20;;;8.77;;
74933;SDS011;63499;53.232;7.492;2023-05-10T04:45:26;10.70;;;9.20;;
74933;SDS011;63499;53.232;7.492;2023-05-10T04:47:53;9.75;;;7.65;;
74933;SDS011;63499;53.232;7.492;2023-05-10T04:50:20;10.02;;;7.88;;
74933;SDS011;63499;53.232;7.492;2023-05-10T04:52:47;9.48;;;7.78;;
74933;SDS011;63499;53.232;7.492;2023-05-10T04:55:13;9.00;;;7.43;;
74933;SDS011;63499;53.232;7.492;2023-05-10T04:57:41;10.07;;;7.78;;
74933;SDS011;63499;53.232;7.492;2023-05-10T05:00:07;10.55;;;8.32;;
74933;SDS011;63499;53.232;7.492;2023-05-10T05:02:34;9.10;;;8.00;;
74933;SDS011;63499;53.232;7.492;2023-05-10T05:05:01;12.65;;;8.25;;
74933;SDS011;63499;53.232;7.492;2023-05-10T05:07:28;10.98;;;8.38;;
74933;SDS011;63499;53.232;7.492;2023-05-10T05:09:56;12.40;;;9.43;;
74933;SDS011;63499;53.232;7.492;2023-05-10T05:12:22;13.52;;;8.65;;
74933;SDS011;63499;53.232;7.492;2023-05-10T05:14:52;11.15;;;8.88;;
74933;SDS011;63499;53.232;7.492;2023-05-10T05:17:19;11.25;;;8.55;;
74933;SDS011;63499;53.232;7.492;2023-05-10T05:19:46;11.73;;;8.65;;
74933;SDS011;63499;53.232;7.492;2023-05-10T05:22:12;11.32;;;8.85;;
74933;SDS011;63499;53.232;7.492;2023-05-10T05:24:39;10.77;;;8.60;;
74933;SDS011;63499;53.232;7.492;2023-05-10T05:27:05;11.73;;;8.57;;
74933;SDS011;63499;53.232;7.492;2023-05-10T05:29:32;10.13;;;7.95;;
74933;SDS011;63499;53.232;7.492;2023-05-10T05:31:59;9.80;;;7.82;;
74933;SDS011;63499;53.232;7.492;2023-05-10T05:34:26;12.52;;;7.90;;
74933;SDS011;63499;53.232;7.492;2023-05-10T05:36:52;10.40;;;8.48;;
74933;SDS011;63499;53.232;7.492;2023-05-10T05:39:19;14.23;;;9.05;;
74933;SDS011;63499;53.232;7.492;2023-05-10T05:41:49;13.13;;;9.77;;
74933;SDS011;63499;53.232;7.492;2023-05-10T05:44:16;10.13;;;8.23;;
74933;SDS011;63499;53.232;7.492;2023-05-10T05:46:42;10.57;;;8.68;;
74933;SDS011;63499;53.232;7.492;2023-05-10T05:49:09;10.05;;;7.93;;
74933;SDS011;63499;53.232;7.492;2023-05-10T05:51:36;11.50;;;8.73;;
74933;SDS011;63499;53.232;7.492;2023-05-10T05:54:03;11.90;;;9.77;;
74933;SDS011;63499;53.232;7.492;2023-05-10T05:56:29;14.15;;;9.98;;
74933;SDS011;63499;53.232;7.492;2023-05-10T05:58:56;14.57;;;10.02;;
74933;SDS011;63499;53.232;7.492;2023-05-10T06:01:23;14.45;;;9.90;;
74933;SDS011;63499;53.232;7.492;2023-05-10T06:03:50;11.40;;;7.85;;
74933;SDS011;63499;53.232;7.492;2023-05-10T06:06:17;12.63;;;9.05;;
74933;SDS011;63499;53.232;7.492;2023-05-10T06:08:43;13.27;;;8.68;;
74933;SDS011;63499;53.232;7.492;2023-05-10T06:11:10;12.85;;;8.70;;
74933;SDS011;63499;53.232;7.492;2023-05-10T06:13:37;11.70;;;8.52;;
74933;SDS011;63499;53.232;7.492;2023-05-10T06:16:03;13.63;;;9.63;;
74933;SDS011;63499;53.232;7.492;2023-05-10T06:18:30;12.43;;;8.68;;
74933;SDS011;63499;53.232;7.492;2023-05-10T06:20:56;10.73;;;8.43;;
74933;SDS011;63499;53.232;7.492;2023-05-10T06:23:23;12.93;;;9.70;;
74933;SDS011;63499;53.232;7.492;2023-05-10T06:25:51;11.20;;;8.30;;
74933;SDS011;63499;53.232;7.492;2023-05-10T06:28:19;11.57;;;8.13;;
74933;SDS011;63499;53.232;7.492;2023-05-10T06:30:54;10.88;;;8.20;;
74933;SDS011;63499;53.232;7.492;2023-05-10T06:33:21;10.18;;;7.55;;
74933;SDS011;63499;53.232;7.492;2023-05-10T06:35:48;13.98;;;9.15;;
74933;SDS011;63499;53.232;7.492;2023-05-10T06:38:15;12.40;;;8.77;;
74933;SDS011;63499;53.232;7.492;2023-05-10T06:40:42;11.18;;;8.50;;
74933;SDS011;63499;53.232;7.492;2023-05-10T06:43:09;9.77;;;7.50;;
74933;SDS011;63499;53.232;7.492;2023-05-10T06:45:35;13.95;;;8.20;;
74933;SDS011;63499;53.232;7.492;2023-05-10T06:48:02;9.35;;;7.18;;
74933;SDS011;63499;53.232;7.492;2023-05-10T06:50:29;8.80;;;6.35;;
74933;SDS011;63499;53.232;7.492;2023-05-10T06:52:56;7.25;;;6.05;;
74933;SDS011;63499;53.232;7.492;2023-05-10T06:55:23;9.32;;;6.10;;
74933;SDS011;63499;53.232;7.492;2023-05-10T06:57:50;6.53;;;5.82;;
74933;SDS011;63499;53.232;7.492;2023-05-10T07:00:17;7.18;;;5.40;;
74933;SDS011;63499;53.232;7.492;2023-05-10T07:02:44;6.35;;;5.40;;
74933;SDS011;63499;53.232;7.492;2023-05-10T07:05:11;5.45;;;4.95;;
74933;SDS011;63499;53.232;7.492;2023-05-10T07:07:37;8.27;;;5.00;;
74933;SDS011;63499;53.232;7.492;2023-05-10T07:10:05;4.72;;;4.20;;
74933;SDS011;63499;53.232;7.492;2023-05-10T07:12:33;4.35;;;3.88;;
74933;SDS011;63499;53.232;7.492;2023-05-10T07:14:59;5.68;;;4.38;;
74933;SDS011;63499;53.232;7.492;2023-05-10T07:17:26;5.35;;;3.83;;
74933;SDS011;63499;53.232;7.492;2023-05-10T07:19:53;3.38;;;3.08;;
74933;SDS011;63499;53.232;7.492;2023-05-10T07:22:23;3.40;;;3.08;;
74933;SDS011;63499;53.232;7.492;2023-05-10T07:24:49;3.00;;;2.80;;
74933;SDS011;63499;53.232;7.492;2023-05-10T07:27:16;4.60;;;3.15;;
74933;SDS011;63499;53.232;7.492;2023-05-10T07:29:42;4.28;;;2.85;;
74933;SDS011;63499;53.232;7.492;2023-05-10T07:32:09;5.90;;;3.05;;
74933;SDS011;63499;53.232;7.492;2023-05-10T07:34:36;4.80;;;1.70;;
74933;SDS011;63499;53.232;7.492;2023-05-10T07:37:02;2.33;;;1.55;;
74933;SDS011;63499;53.232;7.492;2023-05-10T07:39:29;1.58;;;0.85;;
74933;SDS011;63499;53.232;7.492;2023-05-10T07:41:56;0.60;;;0.60;;
74933;SDS011;63499;53.232;7.492;2023-05-10T07:44:22;1.65;;;0.68;;
74933;SDS011;63499;53.232;7.492;2023-05-10T07:46:49;0.77;;;0.60;;
74933;SDS011;63499;53.232;7.492;2023-05-10T07:49:16;0.20;;;0.20;;
74933;SDS011;63499;53.232;7.492;2023-05-10T10:23:58;12.20;;;8.17;;
74933;SDS011;63499;53.232;7.492;2023-05-10T10:26:25;12.70;;;7.25;;
74933;SDS011;63499;53.232;7.492;2023-05-10T10:28:57;9.50;;;6.32;;
74933;SDS011;63499;53.232;7.492;2023-05-10T10:34:05;13.35;;;7.20;;
74933;SDS011;63499;53.232;7.492;2023-05-10T10:36:33;9.68;;;6.40;;
74933;SDS011;63499;53.232;7.492;2023-05-10T10:39:10;8.60;;;6.38;;
74933;SDS011;63499;53.232;7.492;2023-05-10T10:41:48;9.60;;;6.85;;
74933;SDS011;63499;53.232;7.492;2023-05-10T10:54:40;7.50;;;6.53;;
74933;SDS011;63499;53.232;7.492;2023-05-10T10:59:35;11.82;;;9.75;;
74933;SDS011;63499;53.232;7.492;2023-05-10T11:02:01;11.18;;;8.65;;
74933;SDS011;63499;53.232;7.492;2023-05-10T11:04:28;8.60;;;7.03;;
74933;SDS011;63499;53.232;7.492;2023-05-10T11:07:15;8.88;;;6.75;;
74933;SDS011;63499;53.232;7.492;2023-05-10T11:09:42;6.00;;;4.88;;
74933;SDS011;63499;53.232;7.492;2023-05-10T11:12:09;5.43;;;4.93;;
74933;SDS011;63499;53.232;7.492;2023-05-10T11:14:36;6.45;;;4.65;;
74933;SDS011;63499;53.232;7.492;2023-05-10T11:17:16;4.88;;;3.83;;
74933;SDS011;63499;53.232;7.492;2023-05-10T11:20:07;4.45;;;3.58;;
74933;SDS011;63499;53.232;7.492;2023-05-10T11:22:51;4.03;;;3.60;;
74933;SDS011;63499;53.232;7.492;2023-05-10T11:25:18;5.63;;;3.72;;
74933;SDS011;63499;53.232;7.492;2023-05-10T11:27:47;5.20;;;4.22;;
74933;SDS011;63499;53.232;7.492;2023-05-10T11:30:14;4.40;;;3.60;;
74933;SDS011;63499;53.232;7.492;2023-05-10T11:35:08;4.38;;;3.00;;
74933;SDS011;63499;53.232;7.492;2023-05-10T11:37:35;3.03;;;2.65;;
74933;SDS011;63499;53.232;7.492;2023-05-10T11:40:02;3.05;;;2.80;;
74933;SDS011;63499;53.232;7.492;2023-05-10T11:42:29;3.80;;;3.20;;
74933;SDS011;63499;53.232;7.492;2023-05-10T11:44:55;13.82;;;3.45;;
74933;SDS011;63499;53.232;7.492;2023-05-10T11:47:22;3.90;;;3.50;;
74933;SDS011;63499;53.232;7.492;2023-05-10T11:49:48;6.20;;;4.18;;
74933;SDS011;63499;53.232;7.492;2023-05-10T11:52:15;4.20;;;3.80;;
74933;SDS011;63499;53.232;7.492;2023-05-10T11:54:50;9.70;;;4.63;;
74933;SDS011;63499;53.232;7.492;2023-05-10T11:57:25;5.80;;;5.18;;
74933;SDS011;63499;53.232;7.492;2023-05-10T11:59:56;5.25;;;4.45;;
74933;SDS011;63499;53.232;7.492;2023-05-10T12:02:23;5.93;;;4.13;;
74933;SDS011;63499;53.232;7.492;2023-05-10T12:05:05;5.30;;;4.00;;
74933;SDS011;63499;53.232;7.492;2023-05-10T12:07:32;4.25;;;3.85;;
74933;SDS011;63499;53.232;7.492;2023-05-10T12:10:17;4.72;;;4.30;;
74933;SDS011;63499;53.232;7.492;2023-05-10T12:12:48;3.88;;;3.38;;
74933;SDS011;63499;53.232;7.492;2023-05-10T12:15:19;3.70;;;3.40;;
74933;SDS011;63499;53.232;7.492;2023-05-10T12:17:46;5.53;;;2.97;;
74933;SDS011;63499;53.232;7.492;2023-05-10T12:22:43;2.75;;;2.47;;
74933;SDS011;63499;53.232;7.492;2023-05-10T12:25:10;2.33;;;2.15;;
74933;SDS011;63499;53.232;7.492;2023-05-10T12:27:37;2.58;;;2.33;;
74933;SDS011;63499;53.232;7.492;2023-05-10T12:32:43;4.22;;;3.13;;
74933;SDS011;63499;53.232;7.492;2023-05-10T12:35:13;6.72;;;3.30;;
74933;SDS011;63499;53.232;7.492;2023-05-10T12:37:41;5.50;;;3.40;;
74933;SDS011;63499;53.232;7.492;2023-05-10T12:40:08;5.18;;;3.38;;
74933;SDS011;63499;53.232;7.492;2023-05-10T12:42:38;3.03;;;2.72;;
74933;SDS011;63499;53.232;7.492;2023-05-10T12:45:07;3.40;;;2.53;;
74933;SDS011;63499;53.232;7.492;2023-05-10T12:47:34;4.43;;;2.20;;
74933;SDS011;63499;53.232;7.492;2023-05-10T12:50:03;4.35;;;2.25;;
74933;SDS011;63499;53.232;7.492;2023-05-10T12:52:31;3.22;;;2.13;;
74933;SDS011;63499;53.232;7.492;2023-05-10T12:54:58;3.92;;;2.20;;
74933;SDS011;63499;53.232;7.492;2023-05-10T12:57:28;4.67;;;2.43;;
74933;SDS011;63499;53.232;7.492;2023-05-10T12:59:58;2.83;;;2.20;;
74933;SDS011;63499;53.232;7.492;2023-05-10T13:02:24;3.20;;;2.20;;
74933;SDS011;63499;53.232;7.492;2023-05-10T13:04:51;3.80;;;2.25;;
74933;SDS011;63499;53.232;7.492;2023-05-10T13:07:23;3.47;;;2.45;;
74933;SDS011;63499;53.232;7.492;2023-05-10T13:09:49;5.15;;;2.67;;
74933;SDS011;63499;53.232;7.492;2023-05-10T13:14:43;5.90;;;2.72;;
74933;SDS011;63499;53.232;7.492;2023-05-10T13:17:10;3.30;;;2.78;;
74933;SDS011;63499;53.232;7.492;2023-05-10T13:19:42;3.10;;;2.90;;
74933;SDS011;63499;53.232;7.492;2023-05-10T13:22:08;3.25;;;2.90;;
74933;SDS011;63499;53.232;7.492;2023-05-10T13:24:35;3.63;;;2.72;;
74933;SDS011;63499;53.232;7.492;2023-05-10T13:27:02;5.53;;;3.22;;
74933;SDS011;63499;53.232;7.492;2023-05-10T13:29:28;3.33;;;2.50;;
74933;SDS011;63499;53.232;7.492;2023-05-10T14:13:33;3.80;;;2.40;;
74933;SDS011;63499;53.232;7.492;2023-05-10T14:16:01;4.75;;;2.33;;
74933;SDS011;63499;53.232;7.492;2023-05-10T14:18:30;5.40;;;2.40;;
74933;SDS011;63499;53.232;7.492;2023-05-10T14:23:41;5.72;;;2.72;;
74933;SDS011;63499;53.232;7.492;2023-05-10T14:26:08;4.50;;;2.58;;
74933;SDS011;63499;53.232;7.492;2023-05-10T14:28:35;4.57;;;2.40;;
74933;SDS011;63499;53.232;7.492;2023-05-10T14:31:01;4.47;;;2.72;;
74933;SDS011;63499;53.232;7.492;2023-05-10T14:33:28;3.47;;;2.15;;
74933;SDS011;63499;53.232;7.492;2023-05-10T14:35:55;5.50;;;2.80;;
74933;SDS011;63499;53.232;7.492;2023-05-10T14:38:22;5.40;;;2.80;;
74933;SDS011;63499;53.232;7.492;2023-05-10T14:40:49;3.35;;;2.50;;
74933;SDS011;63499;53.232;7.492;2023-05-10T14:43:16;3.67;;;2.65;;
74933;SDS011;63499;53.232;7.492;2023-05-10T14:45:43;7.55;;;2.40;;
74933;SDS011;63499;53.232;7.492;2023-05-10T14:48:10;3.10;;;2.65;;
74933;SDS011;63499;53.232;7.492;2023-05-10T14:50:41;5.07;;;2.53;;
74933;SDS011;63499;53.232;7.492;2023-05-10T14:53:07;4.13;;;2.70;;
74933;SDS011;63499;53.232;7.492;2023-05-10T14:55:34;6.38;;;3.25;;
74933;SDS011;63499;53.232;7.492;2023-05-10T14:58:03;6.22;;;3.30;;
74933;SDS011;63499;53.232;7.492;2023-05-10T15:00:30;3.78;;;2.65;;
74933;SDS011;63499;53.232;7.492;2023-05-10T15:02:56;9.77;;;2.85;;
74933;SDS011;63499;53.232;7.492;2023-05-10T15:05:26;6.95;;;3.47;;
74933;SDS011;63499;53.232;7.492;2023-05-10T15:07:58;5.97;;;3.65;;
74933;SDS011;63499;53.232;7.492;2023-05-10T15:10:25;7.95;;;3.60;;
74933;SDS011;63499;53.232;7.492;2023-05-10T15:12:52;4.57;;;2.95;;
74933;SDS011;63499;53.232;7.492;2023-05-10T15:15:19;4.40;;;3.13;;
74933;SDS011;63499;53.232;7.492;2023-05-10T15:17:47;6.20;;;3.57;;
74933;SDS011;63499;53.232;7.492;2023-05-10T15:20:14;5.22;;;3.55;;
74933;SDS011;63499;53.232;7.492;2023-05-10T15:22:41;4.20;;;3.35;;
74933;SDS011;63499;53.232;7.492;2023-05-10T15:25:08;4.40;;;3.13;;
74933;SDS011;63499;53.232;7.492;2023-05-10T15:27:35;4.40;;;3.00;;
74933;SDS011;63499;53.232;7.492;2023-05-10T15:30:02;7.15;;;3.42;;
74933;SDS011;63499;53.232;7.492;2023-05-10T15:32:32;5.78;;;2.88;;
74933;SDS011;63499;53.232;7.492;2023-05-10T19:34:53;12.82;;;9.43;;
74933;SDS011;63499;53.232;7.492;2023-05-10T19:37:19;13.48;;;8.93;;
74933;SDS011;63499;53.232;7.492;2023-05-10T19:42:12;13.33;;;9.27;;
74933;SDS011;63499;53.232;7.492;2023-05-10T19:44:39;11.20;;;7.95;;
74933;SDS011;63499;53.232;7.492;2023-05-10T19:47:07;12.82;;;8.32;;
74933;SDS011;63499;53.232;7.492;2023-05-10T19:49:34;11.63;;;7.72;;
74933;SDS011;63499;53.232;7.492;2023-05-10T19:52:01;10.40;;;7.18;;
74933;SDS011;63499;53.232;7.492;2023-05-10T19:54:28;12.73;;;7.70;;
74933;SDS011;63499;53.232;7.492;2023-05-10T19:56:54;10.55;;;7.00;;
74933;SDS011;63499;53.232;7.492;2023-05-10T19:59:22;10.23;;;7.20;;
74933;SDS011;63499;53.232;7.492;2023-05-10T20:01:48;10.27;;;6.93;;
74933;SDS011;63499;53.232;7.492;2023-05-10T20:04:15;11.57;;;7.40;;
74933;SDS011;63499;53.232;7.492;2023-05-10T20:11:36;12.37;;;8.30;;
74933;SDS011;63499;53.232;7.492;2023-05-10T20:14:08;10.65;;;7.32;;
74933;SDS011;63499;53.232;7.492;2023-05-10T20:16:35;9.00;;;6.82;;
74933;SDS011;63499;53.232;7.492;2023-05-10T20:21:28;10.68;;;6.30;;
74933;SDS011;63499;53.232;7.492;2023-05-10T20:23:55;11.32;;;6.68;;
74933;SDS011;63499;53.232;7.492;2023-05-10T20:26:22;9.65;;;6.78;;
74933;SDS011;63499;53.232;7.492;2023-05-10T20:28:49;9.02;;;6.18;;
74933;SDS011;63499;53.232;7.492;2023-05-10T20:31:16;8.30;;;6.35;;
74933;SDS011;63499;53.232;7.492;2023-05-10T20:33:43;6.20;;;4.80;;
74933;SDS011;63499;53.232;7.492;2023-05-10T20:36:10;4.88;;;4.38;;
74933;SDS011;63499;53.232;7.492;2023-05-10T20:38:37;9.10;;;5.00;;
74933;SDS011;63499;53.232;7.492;2023-05-10T20:41:04;5.70;;;4.95;;
74933;SDS011;63499;53.232;7.492;2023-05-10T20:43:31;6.95;;;4.00;;
